sensor_id;sensor_type;location;lat;lon;timestamp;pressure;altitude;pressure_sealevel;temperature;humidity
28648;BME280;17137;51.494;-0.262;2023-02-21T10:40:09;64275.46;;;21.72;57.58
28648;BME280;17137;51.494;-0.262;2023-02-21T10:40:50;50392.25;;;-145.72;79.43
28648;BME280;17137;51.494;-0.262;2023-02-21T10:41:21;50392.99;;;-145.72;78.56
28648;BME280;17137;51.494;-0.262;2023-02-21T10:41:52;50388.92;;;-145.72;78.43
28648;BME280;17137;51.494;-0.262;2023-02-21T10:42:30;50393.97;;;-145.72;78.09
28648;BME280;17137;51.494;-0.262;2023-02-21T10:43:06;50390.27;;;-145.72;78.30
28648;BME280;17137;51.494;-0.262;2023-02-21T10:43:39;50387.19;;;-145.72;78.31
28648;BME280;17137;51.494;-0.262;2023-02-21T10:44:14;50378.69;;;-145.72;78.29
28648;BME280;17137;51.494;-0.262;2023-02-21T10:44:46;50378.81;;;-145.72;78.33
28648;BME280;17137;51.494;-0.262;2023-02-21T10:45:18;50395.21;;;-145.72;79.12
28648;BME280;17137;51.494;-0.262;2023-02-21T10:45:54;50382.39;;;-145.72;78.95
28648;BME280;17137;51.494;-0.262;2023-02-21T10:46:30;50391.63;;;-145.72;79.26
28648;BME280;17137;51.494;-0.262;2023-02-21T10:47:07;50381.77;;;-145.72;78.97
28648;BME280;17137;51.494;-0.262;2023-02-21T10:47:48;50393.60;;;-145.72;78.26
28648;BME280;17137;51.494;-0.262;2023-02-21T10:48:24;50375.73;;;-145.72;77.83
28648;BME280;17137;51.494;-0.262;2023-02-21T10:49:16;50371.91;;;-145.72;77.54
28648;BME280;17137;51.494;-0.262;2023-02-21T10:49:55;50375.61;;;-145.72;77.15
28648;BME280;17137;51.494;-0.262;2023-02-21T10:50:39;50377.58;;;-145.72;76.84
28648;BME280;17137;51.494;-0.262;2023-02-21T10:51:12;50370.67;;;-145.72;76.78
28648;BME280;17137;51.494;-0.262;2023-02-21T10:51:42;50379.30;;;-145.72;76.81
28648;BME280;17137;51.494;-0.262;2023-02-21T10:52:15;50376.10;;;-145.72;76.81
28648;BME280;17137;51.494;-0.262;2023-02-21T10:52:48;50368.09;;;-145.72;76.85
28648;BME280;17137;51.494;-0.262;2023-02-21T10:53:30;50367.72;;;-145.72;76.30
28648;BME280;17137;51.494;-0.262;2023-02-21T10:54:17;50372.28;;;-145.72;75.99
28648;BME280;17137;51.494;-0.262;2023-02-21T10:55:00;50376.34;;;-145.72;75.93
28648;BME280;17137;51.494;-0.262;2023-02-21T10:55:30;50368.83;;;-145.72;76.00
28648;BME280;17137;51.494;-0.262;2023-02-21T10:56:29;50365.50;;;-145.72;75.86
28648;BME280;17137;51.494;-0.262;2023-02-21T10:57:07;50374.13;;;-145.72;76.45
28648;BME280;17137;51.494;-0.262;2023-02-21T10:57:41;50363.77;;;-145.72;76.36
28648;BME280;17137;51.494;-0.262;2023-02-21T10:58:22;50360.44;;;-145.72;76.24
28648;BME280;17137;51.494;-0.262;2023-02-21T10:58:59;50364.26;;;-145.72;75.75
28648;BME280;17137;51.494;-0.262;2023-02-21T10:59:33;50375.61;;;-145.72;75.73
28648;BME280;17137;51.494;-0.262;2023-02-21T11:00:06;50368.70;;;-145.72;75.76
28648;BME280;17137;51.494;-0.262;2023-02-21T11:00:38;50368.83;;;-145.72;76.06
28648;BME280;17137;51.494;-0.262;2023-02-21T11:01:12;50376.34;;;-145.72;75.94
28648;BME280;17137;51.494;-0.262;2023-02-21T11:01:44;50371.04;;;-145.72;76.12
28648;BME280;17137;51.494;-0.262;2023-02-21T11:02:33;50354.16;;;-145.72;75.64
28648;BME280;17137;51.494;-0.262;2023-02-21T11:03:06;50360.32;;;-145.72;75.23
28648;BME280;17137;51.494;-0.262;2023-02-21T11:03:44;50365.25;;;-145.72;75.12
28648;BME280;17137;51.494;-0.262;2023-02-21T11:04:25;50378.93;;;-145.72;76.21
28648;BME280;17137;51.494;-0.262;2023-02-21T11:05:08;50372.03;;;-145.72;76.23
28648;BME280;17137;51.494;-0.262;2023-02-21T11:05:38;50373.63;;;-145.72;75.94
28648;BME280;17137;51.494;-0.262;2023-02-21T11:06:09;50376.59;;;-145.72;75.31
28648;BME280;17137;51.494;-0.262;2023-02-21T11:06:53;50360.44;;;-145.72;75.21
28648;BME280;17137;51.494;-0.262;2023-02-21T11:07:24;50354.53;;;-145.72;75.05
28648;BME280;17137;51.494;-0.262;2023-02-21T11:07:58;50367.35;;;-145.72;74.76
28648;BME280;17137;51.494;-0.262;2023-02-21T11:08:35;50365.50;;;-145.72;74.86
28648;BME280;17137;51.494;-0.262;2023-02-21T11:09:29;50374.62;;;-145.72;75.53
28648;BME280;17137;51.494;-0.262;2023-02-21T11:09:59;50370.18;;;-145.72;75.54
28648;BME280;17137;51.494;-0.262;2023-02-21T11:10:33;50373.63;;;-145.72;75.01
28648;BME280;17137;51.494;-0.262;2023-02-21T11:11:04;50371.41;;;-145.72;75.08
28648;BME280;17137;51.494;-0.262;2023-02-21T11:11:37;50364.02;;;-145.72;74.95
28648;BME280;17137;51.494;-0.262;2023-02-21T11:12:21;50364.51;;;-145.72;75.42
28648;BME280;17137;51.494;-0.262;2023-02-21T11:13:02;50364.26;;;-145.72;75.83
28648;BME280;17137;51.494;-0.262;2023-02-21T11:13:33;50384.36;;;-145.72;76.83
28648;BME280;17137;51.494;-0.262;2023-02-21T11:14:20;50371.41;;;-145.72;76.64
28648;BME280;17137;51.494;-0.262;2023-02-21T11:15:16;50373.02;;;-145.72;76.78
28648;BME280;17137;51.494;-0.262;2023-02-21T11:15:48;50372.65;;;-145.72;76.93
28648;BME280;17137;51.494;-0.262;2023-02-21T11:16:35;50368.21;;;-145.72;77.26
28648;BME280;17137;51.494;-0.262;2023-02-21T11:17:11;50373.88;;;-145.72;77.24
28648;BME280;17137;51.494;-0.262;2023-02-21T11:17:43;50375.48;;;-145.72;77.25
28648;BME280;17137;51.494;-0.262;2023-02-21T11:18:16;50371.54;;;-145.72;77.11
28648;BME280;17137;51.494;-0.262;2023-02-21T11:19:03;50378.19;;;-145.72;76.35
28648;BME280;17137;51.494;-0.262;2023-02-21T11:19:43;50376.47;;;-145.72;76.66
28648;BME280;17137;51.494;-0.262;2023-02-21T11:20:18;50373.39;;;-145.72;76.47
28648;BME280;17137;51.494;-0.262;2023-02-21T11:20:49;50384.36;;;-145.72;77.45
28648;BME280;17137;51.494;-0.262;2023-02-21T11:21:20;50386.58;;;-145.72;77.34
28648;BME280;17137;51.494;-0.262;2023-02-21T11:21:54;50377.08;;;-145.72;77.30
28648;BME280;17137;51.494;-0.262;2023-02-21T11:22:35;50371.41;;;-145.72;77.72
28648;BME280;17137;51.494;-0.262;2023-02-21T11:23:18;50378.32;;;-145.72;77.42
28648;BME280;17137;51.494;-0.262;2023-02-21T11:23:54;50359.83;;;-145.72;77.12
28648;BME280;17137;51.494;-0.262;2023-02-21T11:24:25;50370.43;;;-145.72;77.13
28648;BME280;17137;51.494;-0.262;2023-02-21T11:24:59;50381.40;;;-145.72;77.15
28648;BME280;17137;51.494;-0.262;2023-02-21T11:25:38;50380.04;;;-145.72;77.31
28648;BME280;17137;51.494;-0.262;2023-02-21T11:26:10;50369.32;;;-145.72;77.15
28648;BME280;17137;51.494;-0.262;2023-02-21T11:26:46;50383.37;;;-145.72;76.85
28648;BME280;17137;51.494;-0.262;2023-02-21T11:27:17;50370.18;;;-145.72;76.83
28648;BME280;17137;51.494;-0.262;2023-02-21T11:28:00;50383.25;;;-145.72;77.74
28648;BME280;17137;51.494;-0.262;2023-02-21T11:28:36;50380.04;;;-145.72;78.08
28648;BME280;17137;51.494;-0.262;2023-02-21T11:29:10;50376.22;;;-145.72;77.57
28648;BME280;17137;51.494;-0.262;2023-02-21T11:29:44;50379.43;;;-145.72;77.55
28648;BME280;17137;51.494;-0.262;2023-02-21T11:30:49;50369.32;;;-145.72;77.61
28648;BME280;17137;51.494;-0.262;2023-02-21T11:31:33;50368.58;;;-145.72;77.92
28648;BME280;17137;51.494;-0.262;2023-02-21T11:32:10;50379.55;;;-145.72;77.89
28648;BME280;17137;51.494;-0.262;2023-02-21T11:32:42;50379.43;;;-145.72;77.80
28648;BME280;17137;51.494;-0.262;2023-02-21T11:33:20;50389.29;;;-145.72;78.53
28648;BME280;17137;51.494;-0.262;2023-02-21T11:33:56;50377.58;;;-145.72;78.08
28648;BME280;17137;51.494;-0.262;2023-02-21T11:34:28;50394.47;;;-145.72;78.46
28648;BME280;17137;51.494;-0.262;2023-02-21T11:35:03;50381.52;;;-145.72;78.16
28648;BME280;17137;51.494;-0.262;2023-02-21T11:35:38;50376.96;;;-145.72;78.29
28648;BME280;17137;51.494;-0.262;2023-02-21T11:36:15;50386.82;;;-145.72;78.16
28648;BME280;17137;51.494;-0.262;2023-02-21T11:36:46;50379.80;;;-145.72;77.96
28648;BME280;17137;51.494;-0.262;2023-02-21T11:37:18;50379.67;;;-145.72;77.97
28648;BME280;17137;51.494;-0.262;2023-02-21T11:37:51;50379.92;;;-145.72;77.93
28648;BME280;17137;51.494;-0.262;2023-02-21T11:38:32;50388.43;;;-145.72;78.29
28648;BME280;17137;51.494;-0.262;2023-02-21T11:39:05;50377.45;;;-145.72;78.52
28648;BME280;17137;51.494;-0.262;2023-02-21T11:39:36;50383.12;;;-145.72;78.58
28648;BME280;17137;51.494;-0.262;2023-02-21T11:40:22;50386.58;;;-145.72;78.88
28648;BME280;17137;51.494;-0.262;2023-02-21T11:40:53;50392.25;;;-145.72;78.46
28648;BME280;17137;51.494;-0.262;2023-02-21T11:41:36;50383.74;;;-145.72;78.22
28648;BME280;17137;51.494;-0.262;2023-02-21T11:42:25;50394.96;;;-145.72;78.65
28648;BME280;17137;51.494;-0.262;2023-02-21T11:43:34;50386.21;;;-145.72;78.80
28648;BME280;17137;51.494;-0.262;2023-02-21T11:44:22;50370.92;;;-145.72;78.66
28648;BME280;17137;51.494;-0.262;2023-02-21T11:45:10;50384.48;;;-145.72;78.74
28648;BME280;17137;51.494;-0.262;2023-02-21T11:46:04;50380.91;;;-145.72;79.21
28648;BME280;17137;51.494;-0.262;2023-02-21T11:46:45;50381.40;;;-145.72;78.72
28648;BME280;17137;51.494;-0.262;2023-02-21T11:47:21;50385.47;;;-145.72;78.60
28648;BME280;17137;51.494;-0.262;2023-02-21T11:47:59;50373.76;;;-145.72;78.02
28648;BME280;17137;51.494;-0.262;2023-02-21T11:48:36;50375.48;;;-145.72;78.10
28648;BME280;17137;51.494;-0.262;2023-02-21T11:49:20;50393.73;;;-145.72;78.24
28648;BME280;17137;51.494;-0.262;2023-02-21T11:49:59;50389.04;;;-145.72;78.79
28648;BME280;17137;51.494;-0.262;2023-02-21T11:50:36;50376.34;;;-145.72;78.57
28648;BME280;17137;51.494;-0.262;2023-02-21T11:51:20;50370.06;;;-145.72;78.03
28648;BME280;17137;51.494;-0.262;2023-02-21T11:51:58;50380.17;;;-145.72;77.81
28648;BME280;17137;51.494;-0.262;2023-02-21T11:52:35;50372.03;;;-145.72;77.61
28648;BME280;17137;51.494;-0.262;2023-02-21T11:53:16;50378.93;;;-145.72;77.04
28648;BME280;17137;51.494;-0.262;2023-02-21T11:53:47;50379.92;;;-145.72;77.26
28648;BME280;17137;51.494;-0.262;2023-02-21T11:54:19;50391.51;;;-145.72;77.58
28648;BME280;17137;51.494;-0.262;2023-02-21T11:54:51;50378.93;;;-145.72;77.64
28648;BME280;17137;51.494;-0.262;2023-02-21T11:55:23;50383.62;;;-145.72;77.23
28648;BME280;17137;51.494;-0.262;2023-02-21T11:55:58;50375.61;;;-145.72;76.87
28648;BME280;17137;51.494;-0.262;2023-02-21T11:56:41;50370.67;;;-145.72;76.68
28648;BME280;17137;51.494;-0.262;2023-02-21T11:57:20;50374.50;;;-145.72;76.89
28648;BME280;17137;51.494;-0.262;2023-02-21T11:58:03;50369.07;;;-145.72;76.65
28648;BME280;17137;51.494;-0.262;2023-02-21T11:58:47;50373.63;;;-145.72;76.74
28648;BME280;17137;51.494;-0.262;2023-02-21T11:59:28;50361.06;;;-145.72;76.28
28648;BME280;17137;51.494;-0.262;2023-02-21T12:00:12;50377.70;;;-145.72;76.52
28648;BME280;17137;51.494;-0.262;2023-02-21T12:00:50;50361.18;;;-145.72;76.58
28648;BME280;17137;51.494;-0.262;2023-02-21T12:01:27;50362.66;;;-145.72;76.32
28648;BME280;17137;51.494;-0.262;2023-02-21T12:02:22;50356.62;;;-145.72;76.61
28648;BME280;17137;51.494;-0.262;2023-02-21T12:03:10;50383.37;;;-145.72;78.22
28648;BME280;17137;51.494;-0.262;2023-02-21T12:03:57;50384.48;;;-145.72;77.66
28648;BME280;17137;51.494;-0.262;2023-02-21T12:04:44;50367.10;;;-145.72;77.37
28648;BME280;17137;51.494;-0.262;2023-02-21T12:05:57;50361.43;;;-145.72;76.28
28648;BME280;17137;51.494;-0.262;2023-02-21T12:06:39;50354.28;;;-145.72;75.74
28648;BME280;17137;51.494;-0.262;2023-02-21T12:07:16;50359.95;;;-145.72;75.41
28648;BME280;17137;51.494;-0.262;2023-02-21T12:08:03;50350.83;;;-145.72;76.03
28648;BME280;17137;51.494;-0.262;2023-02-21T12:08:39;50356.62;;;-145.72;76.10
28648;BME280;17137;51.494;-0.262;2023-02-21T12:09:18;50353.42;;;-145.72;76.16
28648;BME280;17137;51.494;-0.262;2023-02-21T12:09:54;50349.96;;;-145.72;75.98
28648;BME280;17137;51.494;-0.262;2023-02-21T12:10:40;50362.29;;;-145.72;76.75
28648;BME280;17137;51.494;-0.262;2023-02-21T12:11:22;50341.58;;;-145.72;76.59
28648;BME280;17137;51.494;-0.262;2023-02-21T12:12:04;50354.16;;;-145.72;76.54
28648;BME280;17137;51.494;-0.262;2023-02-21T12:12:42;50360.20;;;-145.72;76.59
28648;BME280;17137;51.494;-0.262;2023-02-21T12:13:23;50358.59;;;-145.72;76.74
28648;BME280;17137;51.494;-0.262;2023-02-21T12:14:08;50343.55;;;-145.72;75.36
28648;BME280;17137;51.494;-0.262;2023-02-21T12:14:52;50342.94;;;-145.72;74.66
28648;BME280;17137;51.494;-0.262;2023-02-21T12:15:25;50338.75;;;-145.72;74.45
28648;BME280;17137;51.494;-0.262;2023-02-21T12:16:05;50344.91;;;-145.72;75.00
28648;BME280;17137;51.494;-0.262;2023-02-21T12:16:47;50334.80;;;-145.72;74.89
28648;BME280;17137;51.494;-0.262;2023-02-21T12:17:34;50339.98;;;-145.72;75.30
28648;BME280;17137;51.494;-0.262;2023-02-21T12:18:23;50343.68;;;-145.72;74.99
28648;BME280;17137;51.494;-0.262;2023-02-21T12:19:11;50338.13;;;-145.72;74.30
28648;BME280;17137;51.494;-0.262;2023-02-21T12:19:57;50332.83;;;-145.72;72.73
28648;BME280;17137;51.494;-0.262;2023-02-21T12:20:49;50323.58;;;-145.72;72.80
28648;BME280;17137;51.494;-0.262;2023-02-21T12:21:36;50339.73;;;-145.72;72.47
28648;BME280;17137;51.494;-0.262;2023-02-21T12:22:19;50326.67;;;-145.72;72.89
28648;BME280;17137;51.494;-0.262;2023-02-21T12:23:02;50325.31;;;-145.72;72.74
28648;BME280;17137;51.494;-0.262;2023-02-21T12:23:41;50330.36;;;-145.72;73.35
28648;BME280;17137;51.494;-0.262;2023-02-21T12:24:26;50335.91;;;-145.72;73.12
28648;BME280;17137;51.494;-0.262;2023-02-21T12:25:12;50334.43;;;-145.72;72.96
28648;BME280;17137;51.494;-0.262;2023-02-21T12:25:56;50334.80;;;-145.72;72.75
28648;BME280;17137;51.494;-0.262;2023-02-21T12:26:43;50338.75;;;-145.72;73.14
28648;BME280;17137;51.494;-0.262;2023-02-21T12:27:20;50331.10;;;-145.72;73.17
28648;BME280;17137;51.494;-0.262;2023-02-21T12:27:57;50339.12;;;-145.72;73.17
28648;BME280;17137;51.494;-0.262;2023-02-21T12:28:43;50341.09;;;-145.72;73.31
28648;BME280;17137;51.494;-0.262;2023-02-21T12:29:29;50344.79;;;-145.72;73.94
28648;BME280;17137;51.494;-0.262;2023-02-21T12:30:18;50345.03;;;-145.72;74.23
28648;BME280;17137;51.494;-0.262;2023-02-21T12:31:04;50351.32;;;-145.72;75.43
28648;BME280;17137;51.494;-0.262;2023-02-21T12:31:48;50344.17;;;-145.72;75.00
28648;BME280;17137;51.494;-0.262;2023-02-21T12:32:39;50347.87;;;-145.72;74.80
28648;BME280;17137;51.494;-0.262;2023-02-21T12:33:25;50359.33;;;-145.72;74.62
28648;BME280;17137;51.494;-0.262;2023-02-21T12:34:08;50357.36;;;-145.72;74.88
28648;BME280;17137;51.494;-0.262;2023-02-21T12:34:57;50346.02;;;-145.72;74.83
28648;BME280;17137;51.494;-0.262;2023-02-21T12:35:48;50350.83;;;-145.72;74.56
28648;BME280;17137;51.494;-0.262;2023-02-21T12:36:35;50346.88;;;-145.72;74.36
28648;BME280;17137;51.494;-0.262;2023-02-21T12:37:18;50362.29;;;-145.72;75.58
28648;BME280;17137;51.494;-0.262;2023-02-21T12:37:59;50370.67;;;-145.72;75.26
28648;BME280;17137;51.494;-0.262;2023-02-21T12:38:35;50361.68;;;-145.72;75.07
28648;BME280;17137;51.494;-0.262;2023-02-21T12:39:19;50357.98;;;-145.72;75.19
28648;BME280;17137;51.494;-0.262;2023-02-21T12:40:02;50355.64;;;-145.72;75.22
28648;BME280;17137;51.494;-0.262;2023-02-21T12:40:38;50346.02;;;-145.72;75.15
28648;BME280;17137;51.494;-0.262;2023-02-21T12:41:24;50343.68;;;-145.72;74.17
28648;BME280;17137;51.494;-0.262;2023-02-21T12:42:16;50345.28;;;-145.72;74.76
28648;BME280;17137;51.494;-0.262;2023-02-21T12:43:00;50346.64;;;-145.72;74.35
28648;BME280;17137;51.494;-0.262;2023-02-21T12:43:44;50351.07;;;-145.72;74.21
28648;BME280;17137;51.494;-0.262;2023-02-21T12:44:21;50341.09;;;-145.72;73.76
28648;BME280;17137;51.494;-0.262;2023-02-21T12:45:01;50354.40;;;-145.72;73.95
28648;BME280;17137;51.494;-0.262;2023-02-21T12:45:46;50332.21;;;-145.72;73.47
28648;BME280;17137;51.494;-0.262;2023-02-21T12:46:24;50338.87;;;-145.72;73.08
28648;BME280;17137;51.494;-0.262;2023-02-21T12:46:59;50342.08;;;-145.72;73.11
28648;BME280;17137;51.494;-0.262;2023-02-21T12:47:34;50345.65;;;-145.72;73.35
28648;BME280;17137;51.494;-0.262;2023-02-21T12:48:11;50355.02;;;-145.72;73.83
28648;BME280;17137;51.494;-0.262;2023-02-21T12:48:49;50347.50;;;-145.72;74.32
28648;BME280;17137;51.494;-0.262;2023-02-21T12:49:25;50354.53;;;-145.72;74.90
28648;BME280;17137;51.494;-0.262;2023-02-21T12:50:02;50354.03;;;-145.72;75.35
28648;BME280;17137;51.494;-0.262;2023-02-21T12:50:37;50367.84;;;-145.72;75.01
28648;BME280;17137;51.494;-0.262;2023-02-21T12:51:10;50363.15;;;-145.72;75.11
28648;BME280;17137;51.494;-0.262;2023-02-21T12:51:46;50367.10;;;-145.72;75.68
28648;BME280;17137;51.494;-0.262;2023-02-21T12:52:23;50366.48;;;-145.72;75.57
28648;BME280;17137;51.494;-0.262;2023-02-21T12:52:58;50363.03;;;-145.72;75.07
28648;BME280;17137;51.494;-0.262;2023-02-21T12:53:34;50353.17;;;-145.72;74.59
28648;BME280;17137;51.494;-0.262;2023-02-21T12:54:11;50350.21;;;-145.72;74.49
28648;BME280;17137;51.494;-0.262;2023-02-21T12:54:48;50344.17;;;-145.72;74.45
28648;BME280;17137;51.494;-0.262;2023-02-21T12:55:22;50344.17;;;-145.72;73.96
28648;BME280;17137;51.494;-0.262;2023-02-21T12:56:02;50348.36;;;-145.72;73.89
28648;BME280;17137;51.494;-0.262;2023-02-21T12:56:39;50354.28;;;-145.72;73.95
28648;BME280;17137;51.494;-0.262;2023-02-21T12:57:15;50364.02;;;-145.72;75.08
28648;BME280;17137;51.494;-0.262;2023-02-21T12:57:50;50345.28;;;-145.72;74.78
28648;BME280;17137;51.494;-0.262;2023-02-21T12:58:29;50347.50;;;-145.72;74.76
28648;BME280;17137;51.494;-0.262;2023-02-21T12:59:07;50345.77;;;-145.72;74.86
28648;BME280;17137;51.494;-0.262;2023-02-21T12:59:50;50351.57;;;-145.72;74.87
28648;BME280;17137;51.494;-0.262;2023-02-21T13:00:33;50345.77;;;-145.72;74.58
28648;BME280;17137;51.494;-0.262;2023-02-21T13:01:08;50340.72;;;-145.72;73.91
28648;BME280;17137;51.494;-0.262;2023-02-21T13:01:44;50354.65;;;-145.72;74.49
28648;BME280;17137;51.494;-0.262;2023-02-21T13:02:24;50341.46;;;-145.72;74.61
28648;BME280;17137;51.494;-0.262;2023-02-21T13:03:03;50352.92;;;-145.72;74.52
28648;BME280;17137;51.494;-0.262;2023-02-21T13:03:49;50373.88;;;-145.72;76.62
28648;BME280;17137;51.494;-0.262;2023-02-21T13:04:30;50364.88;;;-145.72;76.95
28648;BME280;17137;51.494;-0.262;2023-02-21T13:05:07;50355.64;;;-145.72;76.85
28648;BME280;17137;51.494;-0.262;2023-02-21T13:05:43;50348.36;;;-145.72;76.88
28648;BME280;17137;51.494;-0.262;2023-02-21T13:06:18;50370.92;;;-145.72;77.16
28648;BME280;17137;51.494;-0.262;2023-02-21T13:06:52;50383.37;;;-145.72;77.88
28648;BME280;17137;51.494;-0.262;2023-02-21T13:07:32;50373.14;;;-145.72;78.00
28648;BME280;17137;51.494;-0.262;2023-02-21T13:08:12;50376.96;;;-145.72;78.29
28648;BME280;17137;51.494;-0.262;2023-02-21T13:08:53;50377.82;;;-145.72;78.25
28648;BME280;17137;51.494;-0.262;2023-02-21T13:09:32;50378.19;;;-145.72;78.42
28648;BME280;17137;51.494;-0.262;2023-02-21T13:10:11;50385.71;;;-145.72;78.41
28648;BME280;17137;51.494;-0.262;2023-02-21T13:10:50;50382.88;;;-145.72;77.91
28648;BME280;17137;51.494;-0.262;2023-02-21T13:11:26;50369.44;;;-145.72;77.55
28648;BME280;17137;51.494;-0.262;2023-02-21T13:12:04;50377.58;;;-145.72;77.35
28648;BME280;17137;51.494;-0.262;2023-02-21T13:12:39;50380.54;;;-145.72;78.49
28648;BME280;17137;51.494;-0.262;2023-02-21T13:13:14;50390.27;;;-145.72;78.62
28648;BME280;17137;51.494;-0.262;2023-02-21T13:13:48;50378.32;;;-145.72;78.39
28648;BME280;17137;51.494;-0.262;2023-02-21T13:14:23;50374.50;;;-145.72;78.38
28648;BME280;17137;51.494;-0.262;2023-02-21T13:14:58;50379.43;;;-145.72;78.72
28648;BME280;17137;51.494;-0.262;2023-02-21T13:15:30;50378.69;;;-145.72;78.43
28648;BME280;17137;51.494;-0.262;2023-02-21T13:16:03;50389.78;;;-145.72;79.38
28648;BME280;17137;51.494;-0.262;2023-02-21T13:16:34;50399.52;;;-145.72;79.63
28648;BME280;17137;51.494;-0.262;2023-02-21T13:17:09;50387.93;;;-145.72;79.25
28648;BME280;17137;51.494;-0.262;2023-02-21T13:17:40;50382.63;;;-145.72;78.75
28648;BME280;17137;51.494;-0.262;2023-02-21T13:18:17;50382.26;;;-145.72;78.71
28648;BME280;17137;51.494;-0.262;2023-02-21T13:18:52;50378.32;;;-145.72;78.72
28648;BME280;17137;51.494;-0.262;2023-02-21T13:19:24;50379.55;;;-145.72;78.56
28648;BME280;17137;51.494;-0.262;2023-02-21T13:20:00;50377.21;;;-145.72;78.82
28648;BME280;17137;51.494;-0.262;2023-02-21T13:20:35;50374.74;;;-145.72;78.72
28648;BME280;17137;51.494;-0.262;2023-02-21T13:21:15;50381.28;;;-145.72;78.40
28648;BME280;17137;51.494;-0.262;2023-02-21T13:22:02;50365.25;;;-145.72;78.40
28648;BME280;17137;51.494;-0.262;2023-02-21T13:25:20;50376.22;;;-145.72;77.95
28648;BME280;17137;51.494;-0.262;2023-02-21T13:26:06;50363.77;;;-145.72;78.62
28648;BME280;17137;51.494;-0.262;2023-02-21T13:26:52;50373.14;;;-145.72;78.52
28648;BME280;17137;51.494;-0.262;2023-02-21T13:27:38;50367.96;;;-145.72;78.45
28648;BME280;17137;51.494;-0.262;2023-02-21T13:28:16;50358.22;;;-145.72;78.22
28648;BME280;17137;51.494;-0.262;2023-02-21T13:28:51;50360.81;;;-145.72;78.04
28648;BME280;17137;51.494;-0.262;2023-02-21T13:29:23;50360.32;;;-145.72;77.86
28648;BME280;17137;51.494;-0.262;2023-02-21T13:30:00;50361.06;;;-145.72;78.04
28648;BME280;17137;51.494;-0.262;2023-02-21T13:30:38;50362.91;;;-145.72;77.45
28648;BME280;17137;51.494;-0.262;2023-02-21T13:31:19;50348.24;;;-145.72;76.63
28648;BME280;17137;51.494;-0.262;2023-02-21T13:31:57;50360.20;;;-145.72;76.40
28648;BME280;17137;51.494;-0.262;2023-02-21T13:32:36;50355.51;;;-145.72;76.01
28648;BME280;17137;51.494;-0.262;2023-02-21T13:33:22;50359.70;;;-145.72;76.44
28648;BME280;17137;51.494;-0.262;2023-02-21T13:33:56;50355.02;;;-145.72;76.96
28648;BME280;17137;51.494;-0.262;2023-02-21T13:34:30;50356.87;;;-145.72;76.76
28648;BME280;17137;51.494;-0.262;2023-02-21T13:35:07;50366.61;;;-145.72;77.49
28648;BME280;17137;51.494;-0.262;2023-02-21T13:35:39;50375.11;;;-145.72;77.71
28648;BME280;17137;51.494;-0.262;2023-02-21T13:36:20;50372.28;;;-145.72;78.11
28648;BME280;17137;51.494;-0.262;2023-02-21T13:36:51;50367.96;;;-145.72;78.92
28648;BME280;17137;51.494;-0.262;2023-02-21T13:37:23;50375.48;;;-145.72;78.41
28648;BME280;17137;51.494;-0.262;2023-02-21T13:37:55;50368.33;;;-145.72;77.80
28648;BME280;17137;51.494;-0.262;2023-02-21T13:38:28;50350.46;;;-145.72;77.49
28648;BME280;17137;51.494;-0.262;2023-02-21T13:39:08;50367.72;;;-145.72;77.75
28648;BME280;17137;51.494;-0.262;2023-02-21T13:39:44;50353.66;;;-145.72;77.70
28648;BME280;17137;51.494;-0.262;2023-02-21T13:40:20;50341.09;;;-145.72;77.40
28648;BME280;17137;51.494;-0.262;2023-02-21T13:40:53;50365.00;;;-145.72;77.41
28648;BME280;17137;51.494;-0.262;2023-02-21T13:41:26;50363.52;;;-145.72;77.75
28648;BME280;17137;51.494;-0.262;2023-02-21T13:42:04;50362.17;;;-145.72;77.55
28648;BME280;17137;51.494;-0.262;2023-02-21T13:42:36;50370.30;;;-145.72;77.76
28648;BME280;17137;51.494;-0.262;2023-02-21T13:43:11;50354.77;;;-145.72;77.61
28648;BME280;17137;51.494;-0.262;2023-02-21T13:43:48;50344.66;;;-145.72;77.09
28648;BME280;17137;51.494;-0.262;2023-02-21T13:44:24;50335.30;;;-145.72;76.83
28648;BME280;17137;51.494;-0.262;2023-02-21T13:45:08;50349.10;;;-145.72;76.91
28648;BME280;17137;51.494;-0.262;2023-02-21T13:45:43;50363.03;;;-145.72;76.84
28648;BME280;17137;51.494;-0.262;2023-02-21T13:47:19;50354.03;;;-145.72;76.95
28648;BME280;17137;51.494;-0.262;2023-02-21T13:48:19;50363.89;;;-145.72;78.14
28648;BME280;17137;51.494;-0.262;2023-02-21T13:49:44;50349.84;;;-145.72;76.93
28648;BME280;17137;51.494;-0.262;2023-02-21T13:50:48;50347.25;;;-145.72;76.61
28648;BME280;17137;51.494;-0.262;2023-02-21T13:51:45;50363.03;;;-145.72;76.98
28648;BME280;17137;51.494;-0.262;2023-02-21T13:52:31;50368.70;;;-145.72;78.00
28648;BME280;17137;51.494;-0.262;2023-02-21T13:53:14;50362.78;;;-145.72;77.66
28648;BME280;17137;51.494;-0.262;2023-02-21T13:54:08;50352.55;;;-145.72;77.09
28648;BME280;17137;51.494;-0.262;2023-02-21T13:55:09;50372.15;;;-145.72;77.42
28648;BME280;17137;51.494;-0.262;2023-02-21T13:56:13;50366.24;;;-145.72;77.04
28648;BME280;17137;51.494;-0.262;2023-02-21T13:56:47;50369.93;;;-145.72;77.14
28648;BME280;17137;51.494;-0.262;2023-02-21T13:57:29;50367.35;;;-145.72;77.16
28648;BME280;17137;51.494;-0.262;2023-02-21T13:58:35;50363.52;;;-145.72;77.23
28648;BME280;17137;51.494;-0.262;2023-02-21T13:59:32;50366.98;;;-145.72;77.92
28648;BME280;17137;51.494;-0.262;2023-02-21T14:00:45;50362.17;;;-145.72;77.77
28648;BME280;17137;51.494;-0.262;2023-02-21T14:01:40;50350.33;;;-145.72;77.43
28648;BME280;17137;51.494;-0.262;2023-02-21T14:02:28;50359.21;;;-145.72;78.32
28648;BME280;17137;51.494;-0.262;2023-02-21T14:03:00;50355.76;;;-145.72;78.31
28648;BME280;17137;51.494;-0.262;2023-02-21T14:03:33;50362.91;;;-145.72;78.36
28648;BME280;17137;51.494;-0.262;2023-02-21T14:04:59;50376.10;;;-145.72;78.91
28648;BME280;17137;51.494;-0.262;2023-02-21T14:06:22;50378.19;;;-145.72;78.89
28648;BME280;17137;51.494;-0.262;2023-02-21T14:06:55;50365.50;;;-145.72;79.26
28648;BME280;17137;51.494;-0.262;2023-02-21T14:08:00;50371.54;;;-145.72;79.07
28648;BME280;17137;51.494;-0.262;2023-02-21T14:08:34;50365.37;;;-145.72;79.14